^^

Meteo Aereoporti Centro-Italia

 

 
LIRZ - Perugia S.Egidio (208 m.)
Dati ricevuti: 11/12/2018 03:50
Sereno
Sereno
 Vento da N
Vento: N 9 km/h
TEMPERATURA: -1°C
Raffreddamento da Vento: -4°C
P.to di Rugiada: -3°C
Umidità: 86%
Pressione: 1017 hPa
Nuvole: Sereno
Visibilità: 10 km
2018/12/11 02:50 LIRZ 110250Z AUTO 35005KT 9999 NCD M01/M03 Q1017
 
LIPY - Ancona Falconara (12 m.)
Dati ricevuti: 10/12/2018 21:50
Dati non aggiornati
Qualche nuvola
Qualche nuvola
 Vento da SSW
Vento: SSW 9 km/h
TEMPERATURA: 7°C
Raffreddamento da Vento: 6°C
P.to di Rugiada: 0°C
Umidità: 61%
Pressione: 1016 hPa
Nuvole: Qualche nuvola
Visibilità: 10 km
Dettagli Nuvole: Qualche nuvola 610 m
2018/12/10 20:50 LIPY 102050Z 20005KT 9999 FEW020CB 07/00 Q1016
 
LIPR - Rimini Miramare (12 m.)
Dati ricevuti: 11/12/2018 04:20
Sereno
Sereno
 Vento da SW
Vento: SW 7 km/h
TEMPERATURA: 3°C
Raffreddamento da Vento: 1°C
P.to di Rugiada: -4°C
Umidità: 60%
Pressione: 1016 hPa
Nuvole: Sereno
Visibilità: 10 km
2018/12/11 03:20 LIPR 110320Z AUTO 23004KT 9999 NCD 03/M04 Q1016
 
LIRF - Roma Fiumicino (2 m.)
Dati ricevuti: 11/12/2018 04:20
Sereno
Sereno
 Vento da ENE
Vento: ENE 15 km/h
TEMPERATURA: 2°C
Raffreddamento da Vento: -2°C
P.to di Rugiada: -2°C
Umidità: 75%
Pressione: 1016 hPa
Condizioni generali: Sereno
Visibilità: oltre 10 km
2018/12/11 03:20 LIRF 110320Z 06008KT CAVOK 02/M02 Q1016 NOSIG
 
LIRA - Roma Ciampino (129 m.)
Dati ricevuti: 11/12/2018 04:20
Sereno
Sereno
 Vento da ENE
Vento: ENE 11 km/h
TEMPERATURA: 5°C
Raffreddamento da Vento: 2°C
P.to di Rugiada: -2°C
Umidità: 61%
Pressione: 1016 hPa
Condizioni generali: Sereno
Visibilità: oltre 10 km
2018/12/11 03:20 LIRA 110320Z 06006KT CAVOK 05/M02 Q1016
 
LIRU - Roma Urbe (17 m.)
Dati ricevuti: 10/12/2018 17:50
Dati non aggiornati
Sereno
Sereno
 Vento da direzione variabile
Vento: direzione variabile 6 km/h
TEMPERATURA: 9°C
P.to di Rugiada: 1°C
Umidità: 58%
Pressione: 1014 hPa
Condizioni generali: Sereno
Visibilità: oltre 10 km
2018/12/10 16:50 LIRU 101650Z VRB03KT CAVOK 09/01 Q1014
 
LIVF - Frontone (570 m.)
Dati ricevuti: 11/12/2018 03:55
Sereno
Sereno
 Vento da SW
Vento: SW 9 km/h
TEMPERATURA: 5°C
Raffreddamento da Vento: 3°C
P.to di Rugiada: -8°C
Umidità: 39%
Pressione: 1014 hPa
Condizioni generali: Sereno
Visibilità: oltre 10 km
2018/12/11 02:55 LIVF 110255Z 23005KT CAVOK 05/M08 Q1014
 
LIRQ - Firenze Peretola (40 m.)
Dati ricevuti: 11/12/2018 04:20
Sereno
Sereno
 Vento da direzione variabile
Vento: direzione variabile 2 km/h
TEMPERATURA: -1°C
P.to di Rugiada: -2°C
Umidità: 93%
Pressione: 1017 hPa
Condizioni generali: Sereno
Visibilità: oltre 10 km
2018/12/11 03:20 LIRQ 110320Z VRB01KT CAVOK M01/M02 Q1017
 
LIBP - Pescara (10 m.)
Dati ricevuti: 11/12/2018 03:50
Sereno
Sereno
 Vento da WSW
Vento: WSW 6 km/h
TEMPERATURA: 5°C
P.to di Rugiada: 2°C
Umidità: 81%
Pressione: 1017 hPa
Nuvole: Sereno
Visibilità: 10 km
2018/12/11 02:50 LIBP 110250Z AUTO 25003KT 210V270 9999 NCD 05/02 Q1017
 
LIRV - Viterbo (300 m.)
Dati ricevuti: 10/12/2018 18:55
Dati non aggiornati
Sereno
Sereno
 Vento da direzione variabile
Vento: direzione variabile 0 km/h
TEMPERATURA: 10°C
P.to di Rugiada: -6°C
Umidità: 32%
Pressione: 1015 hPa
Condizioni generali: Sereno
Visibilità: oltre 10 km
2018/12/10 17:55 LIRV 101755Z /////KT CAVOK 10/M06 Q1015
 
LIQN - Rieti (389 m.)
Dati ricevuti: 10/12/2018 16:50
Dati non aggiornati
Sereno
Sereno
 Vento da WNW
Vento: WNW 19 km/h
TEMPERATURA: 10°C
Raffreddamento da Vento: 7°C
P.to di Rugiada: 0°C
Umidità: 50%
Pressione: 1013 hPa
Condizioni generali: Sereno
Visibilità: oltre 10 km
2018/12/10 15:50 LIQN 101550Z 30010KT CAVOK 10/00 Q1013
 
LIRG - Guidonia -RM- (88 m.)
Dati ricevuti: 07/12/2018 18:55
Dati non aggiornati
Qualche nuvola
Qualche nuvola
 Vento da NNE
Vento: NNE 6 km/h
TEMPERATURA: 11°C
P.to di Rugiada: 8°C
Umidità: 82%
Pressione: 1020 hPa
Nuvole: Qualche nuvola
Visibilità: 10 km
Dettagli Nuvole: Qualche nuvola 1219 m
2018/12/07 17:55 LIRG 071755Z 03003KT 9999 FEW040 11/08 Q1020
 
LIRK - Terminillo -RI-(1874 m.)
Dati ricevuti: 11/12/2018 03:55

 Vento da NNW
Vento: NNW 19 km/h
TEMPERATURA: -3°C
Raffreddamento da Vento: -9°C
P.to di Rugiada: -15°C
Umidità: 39%
Pressione: 1013 hPa
2018/12/11 02:55 LIRK 110255Z AUTO 34010KT //// M03/M15 Q1013
 
LIPK - Forlì (27 m.)
Dati ricevuti: 10/12/2018 17:50
Dati non aggiornati
Sereno
Sereno
 Vento da W
Vento: W 9 km/h
TEMPERATURA: 9°C
Raffreddamento da Vento: 7°C
P.to di Rugiada: -4°C
Umidità: 40%
Pressione: 1016 hPa
Condizioni generali: Sereno
Visibilità: oltre 10 km
2018/12/10 16:50 LIPK 101650Z 27005KT CAVOK 09/M04 Q1016
 
LIRS - Grosseto (5 m.)
Dati ricevuti: 11/12/2018 03:55
Sereno
Sereno
 Vento da NE
Vento: NE 4 km/h
TEMPERATURA: -1°C
P.to di Rugiada: -2°C
Umidità: 93%
Pressione: 1017 hPa
Condizioni generali: Sereno
Visibilità: oltre 10 km
2018/12/11 02:55 LIRS 110255Z 04002KT 360V060 CAVOK M01/M02 Q1017
 
LIRP - Pisa S.Giusto (2 m.)
Dati ricevuti: 11/12/2018 04:15
Sereno
Sereno
 Vento da direzione variabile
Vento: direzione variabile 6 km/h
TEMPERATURA: -1°C
P.to di Rugiada: -1°C
Umidità: 100%
Pressione: 1017 hPa
Condizioni generali: Sereno
Visibilità: oltre 10 km
2018/12/11 03:15 LIRP 110315Z VRB03KT CAVOK M01/M01 Q1017 NOSIG